Time;durP1;ratioP1;P1;durP2;ratioP2;P2;SDS_P1;SDS_P2;PMS_P1;PMS_P2;Temp;Humidity;BMP_temperature;BMP_pressure;BME280_temperature;BME280_humidity;BME280_pressure;Samples;Min_cycle;Max_cycle;Signal;HPM_P1;HPM_P2
2021/05/05 00:00:40;;;;;;;5.90;4.30;;;14.80;99.90;;;;;;5050740;28;20384;-79
2021/05/05 00:03:07;;;;;;;6.30;4.60;;;14.80;99.90;;;;;;5050053;28;20399;-79
2021/05/05 00:05:34;;;;;;;6.63;3.92;;;14.80;99.90;;;;;;5050606;28;20419;-78
2021/05/05 00:08:01;;;;;;;7.07;4.30;;;14.80;99.90;;;;;;5050947;28;20970;-79
2021/05/05 00:10:28;;;;;;;4.30;3.90;;;14.70;99.90;;;;;;5049905;28;20387;-79
2021/05/05 00:12:55;;;;;;;4.93;4.03;;;14.70;99.90;;;;;;5050207;28;20395;-80
2021/05/05 00:15:24;;;;;;;6.20;4.00;;;14.70;99.90;;;;;;5050264;28;20399;-78
2021/05/05 00:17:51;;;;;;;4.50;3.88;;;14.80;99.90;;;;;;5047345;28;20418;-79
2021/05/05 00:20:20;;;;;;;5.28;4.13;;;14.80;99.90;;;;;;5050138;28;20380;-79
2021/05/05 00:22:49;;;;;;;7.65;4.13;;;14.90;99.90;;;;;;5050512;28;20371;-79
2021/05/05 00:25:16;;;;;;;6.07;3.97;;;15.00;99.90;;;;;;5050066;28;20559;-79
2021/05/05 00:27:43;;;;;;;6.07;4.15;;;15.00;99.90;;;;;;5049252;28;20391;-79
2021/05/05 00:30:11;;;;;;;5.82;4.65;;;15.00;99.90;;;;;;5048451;28;21266;-79
2021/05/05 00:32:39;;;;;;;6.40;4.73;;;15.10;99.90;;;;;;5049808;28;20482;-80
2021/05/05 00:35:07;;;;;;;5.07;4.35;;;15.20;99.90;;;;;;5049885;28;20410;-80
2021/05/05 00:37:34;;;;;;;7.03;4.77;;;15.20;99.90;;;;;;5049945;28;20384;-80
2021/05/05 00:40:02;;;;;;;7.05;3.92;;;15.30;99.90;;;;;;5049701;28;20387;-81
2021/05/05 00:42:30;;;;;;;6.93;4.60;;;15.30;99.90;;;;;;5049710;28;20399;-80
2021/05/05 00:44:59;;;;;;;9.15;5.10;;;15.30;99.90;;;;;;5049863;28;20450;-80
2021/05/05 00:47:28;;;;;;;8.23;5.03;;;15.30;99.90;;;;;;5050046;28;20957;-80
2021/05/05 00:50:12;;;;;;;5.97;5.37;;;15.40;99.90;;;;;;5106375;27;20358;-79
2021/05/05 00:52:39;;;;;;;8.93;7.15;;;15.50;99.90;;;;;;5106816;28;20380;-79
2021/05/05 00:55:07;;;;;;;10.38;6.93;;;15.60;99.90;;;;;;5106733;28;20433;-79
2021/05/05 00:57:35;;;;;;;10.52;7.18;;;15.60;99.90;;;;;;5098847;28;20362;-79
2021/05/05 01:00:08;;;;;;;6.55;4.93;;;15.60;99.90;;;;;;5100029;28;20388;-79
2021/05/05 01:02:35;;;;;;;9.30;5.03;;;15.60;99.90;;;;;;5108808;28;20376;-78
2021/05/05 01:05:03;;;;;;;5.32;3.90;;;15.50;99.90;;;;;;5092366;28;20384;-79
2021/05/05 01:07:30;;;;;;;7.05;3.88;;;15.60;99.90;;;;;;5098993;28;20380;-78
2021/05/05 01:09:57;;;;;;;5.65;3.95;;;15.50;99.90;;;;;;5106847;28;20399;-79
2021/05/05 01:12:24;;;;;;;5.10;3.33;;;15.50;99.90;;;;;;5101952;28;20812;-79
2021/05/05 01:14:51;;;;;;;4.22;2.88;;;15.50;99.90;;;;;;5086870;28;20428;-79
2021/05/05 01:17:18;;;;;;;3.83;2.83;;;15.50;99.90;;;;;;5098350;28;20368;-78
2021/05/05 01:19:45;;;;;;;3.22;2.50;;;15.50;99.90;;;;;;5108578;28;20371;-78
2021/05/05 01:22:12;;;;;;;4.72;2.88;;;15.60;99.90;;;;;;5092078;28;20409;-78
2021/05/05 01:24:39;;;;;;;4.63;2.63;;;15.60;99.90;;;;;;5086079;28;20380;-78
2021/05/05 01:27:08;;;;;;;3.42;2.67;;;15.70;99.90;;;;;;5086081;28;20372;-78
2021/05/05 01:29:39;;;;;;;4.20;3.00;;;15.70;99.90;;;;;;5085851;28;20405;-78
2021/05/05 01:32:07;;;;;;;7.07;2.85;;;15.80;99.90;;;;;;5086025;28;20828;-78
2021/05/05 01:34:34;;;;;;;8.30;3.60;;;15.80;99.90;;;;;;5085965;28;20400;-78
2021/05/05 01:37:02;;;;;;;4.17;2.50;;;15.90;99.90;;;;;;5087471;28;20374;-77
2021/05/05 01:39:29;;;;;;;5.50;2.58;;;15.80;99.90;;;;;;5086630;28;20396;-78
2021/05/05 01:41:57;;;;;;;5.80;2.90;;;15.90;99.90;;;;;;5104511;28;20375;-78
2021/05/05 01:44:38;;;;;;;6.30;2.60;;;16.00;99.90;;;;;;5106259;28;20735;-78
2021/05/05 01:47:09;;;;;;;3.75;2.20;;;16.10;99.90;;;;;;5097305;28;20381;-78
2021/05/05 01:49:47;;;;;;;5.57;2.03;;;16.10;99.90;;;;;;5085382;28;20405;-79
2021/05/05 01:52:16;;;;;;;4.68;2.22;;;16.20;99.90;;;;;;5086218;28;20737;-78
2021/05/05 01:54:43;;;;;;;4.05;2.20;;;16.20;99.90;;;;;;5085861;28;20431;-79
2021/05/05 01:57:29;;;;;;;3.00;1.80;;;16.20;99.90;;;;;;5085745;28;20463;-79
2021/05/05 01:59:57;;;;;;;3.50;2.00;;;16.30;99.90;;;;;;5080526;28;20420;-79
2021/05/05 02:02:28;;;;;;;4.00;2.20;;;16.30;99.90;;;;;;5071524;28;20391;-79
2021/05/05 02:04:55;;;;;;;4.33;2.20;;;16.40;99.90;;;;;;5072776;28;20385;-79
2021/05/05 02:07:22;;;;;;;4.68;2.10;;;16.40;99.90;;;;;;5071861;28;20431;-78
2021/05/05 02:09:49;;;;;;;5.10;2.40;;;16.50;99.90;;;;;;5071672;28;20409;-80
2021/05/05 02:12:17;;;;;;;7.68;2.45;;;16.40;99.90;;;;;;5086642;28;20376;-79
2021/05/05 02:14:48;;;;;;;5.30;1.70;;;16.20;99.90;;;;;;5086822;28;20380;-79
2021/05/05 02:17:16;;;;;;;1.55;0.80;;;16.10;99.90;;;;;;5082168;28;20377;-79
2021/05/05 02:19:43;;;;;;;2.60;1.17;;;15.90;99.90;;;;;;5083519;28;20468;-79
2021/05/05 02:22:11;;;;;;;4.85;0.80;;;15.70;99.90;;;;;;5071363;28;20382;-79
2021/05/05 02:24:38;;;;;;;2.80;0.70;;;15.70;99.90;;;;;;5070915;28;20396;-79
2021/05/05 02:27:06;;;;;;;3.67;0.90;;;15.70;99.90;;;;;;5070795;28;20432;-80
2021/05/05 02:29:34;;;;;;;2.08;0.60;;;15.80;99.90;;;;;;5070789;28;20406;-80
2021/05/05 02:32:05;;;;;;;2.83;1.10;;;16.00;99.90;;;;;;5070536;28;20832;-80
2021/05/05 02:34:32;;;;;;;2.85;0.90;;;16.10;99.90;;;;;;5070904;28;20388;-81
2021/05/05 02:36:59;;;;;;;2.35;1.10;;;16.20;99.90;;;;;;5070592;28;20378;-80
2021/05/05 02:39:27;;;;;;;2.73;1.10;;;16.10;99.90;;;;;;5074623;28;20853;-80
2021/05/05 02:41:54;;;;;;;4.43;1.55;;;16.10;99.90;;;;;;5070764;28;20376;-79
2021/05/05 02:44:21;;;;;;;3.28;1.30;;;16.20;99.90;;;;;;5071012;28;20895;-79
2021/05/05 02:46:48;;;;;;;1.95;1.00;;;16.20;99.90;;;;;;5069746;28;20457;-79
2021/05/05 02:49:15;;;;;;;3.45;1.10;;;16.30;99.90;;;;;;5077757;28;20762;-79
2021/05/05 02:51:42;;;;;;;3.38;1.10;;;16.30;99.90;;;;;;5089493;28;20515;-79
2021/05/05 02:54:09;;;;;;;2.55;1.00;;;16.40;99.90;;;;;;5071978;28;20469;-79
2021/05/05 02:56:36;;;;;;;6.45;1.20;;;16.40;99.90;;;;;;5070471;28;20500;-79
2021/05/05 02:59:03;;;;;;;5.30;1.20;;;16.30;99.90;;;;;;5081682;28;20756;-79
2021/05/05 03:01:30;;;;;;;2.72;1.13;;;16.30;99.90;;;;;;5090307;28;20378;-80
2021/05/05 03:03:57;;;;;;;4.22;0.85;;;16.30;99.90;;;;;;5088646;28;20955;-80
2021/05/05 03:06:24;;;;;;;4.25;1.00;;;16.20;99.90;;;;;;5065318;28;20380;-80
2021/05/05 03:08:51;;;;;;;3.50;0.85;;;16.20;99.90;;;;;;5055440;28;20503;-80
2021/05/05 03:11:18;;;;;;;4.47;1.15;;;16.10;99.90;;;;;;5058590;28;20390;-79
2021/05/05 03:13:45;;;;;;;2.40;0.93;;;16.10;99.90;;;;;;5071544;28;20403;-80
2021/05/05 03:16:12;;;;;;;2.33;1.17;;;16.20;99.90;;;;;;5070725;28;21027;-80
2021/05/05 03:18:39;;;;;;;2.75;1.00;;;16.50;99.90;;;;;;5090220;28;20425;-80
2021/05/05 03:21:06;;;;;;;3.20;0.75;;;16.80;99.90;;;;;;5090288;28;20368;-80
2021/05/05 03:23:33;;;;;;;5.87;1.50;;;17.00;99.90;;;;;;5090065;28;20431;-80
2021/05/05 03:26:00;;;;;;;5.25;1.10;;;17.20;99.90;;;;;;5090379;28;20465;-80
2021/05/05 03:28:27;;;;;;;2.85;0.93;;;17.20;99.90;;;;;;5078921;28;20940;-80
2021/05/05 03:30:54;;;;;;;5.55;0.95;;;17.20;99.90;;;;;;5071234;28;21155;-79
2021/05/05 03:33:21;;;;;;;6.07;1.20;;;17.20;99.90;;;;;;5070317;28;20420;-79
2021/05/05 03:35:48;;;;;;;4.43;1.05;;;17.20;99.90;;;;;;5050186;28;21024;-79
2021/05/05 03:38:15;;;;;;;4.50;1.02;;;17.10;99.90;;;;;;5077176;28;20408;-77
2021/05/05 03:40:42;;;;;;;4.93;0.65;;;17.00;99.90;;;;;;5070377;28;20446;-81
2021/05/05 03:43:08;;;;;;;1.92;0.50;;;16.80;99.90;;;;;;5069793;28;20394;-79
2021/05/05 03:45:36;;;;;;;3.10;0.70;;;16.60;99.90;;;;;;5068794;28;20469;-79
2021/05/05 03:48:03;;;;;;;3.63;0.75;;;16.50;99.90;;;;;;5070406;28;20390;-80
2021/05/05 03:50:31;;;;;;;2.88;0.70;;;16.40;99.90;;;;;;5070666;28;20394;-80
2021/05/05 03:52:58;;;;;;;4.05;0.98;;;16.40;99.90;;;;;;5071021;28;20436;-78
2021/05/05 03:55:26;;;;;;;2.95;0.82;;;16.40;99.90;;;;;;5070221;28;20457;-81
2021/05/05 03:57:53;;;;;;;4.47;0.70;;;16.50;99.90;;;;;;5071742;28;20369;-81
2021/05/05 04:00:20;;;;;;;3.83;0.68;;;16.50;99.90;;;;;;5092064;28;20380;-81
2021/05/05 04:02:47;;;;;;;5.63;0.80;;;16.50;99.90;;;;;;5074830;28;20370;-79
2021/05/05 04:05:15;;;;;;;3.70;0.70;;;16.70;99.90;;;;;;5073762;28;20466;-80
2021/05/05 04:07:42;;;;;;;6.60;1.10;;;16.90;99.90;;;;;;5088828;28;20848;-80
2021/05/05 04:10:10;;;;;;;3.22;0.60;;;17.10;99.90;;;;;;5092617;28;20384;-80
2021/05/05 04:12:37;;;;;;;4.10;0.90;;;17.20;99.90;;;;;;5091631;28;20535;-80
2021/05/05 04:15:05;;;;;;;3.15;0.50;;;17.10;99.90;;;;;;5090690;28;20803;-80
2021/05/05 04:17:32;;;;;;;5.55;0.60;;;17.10;99.90;;;;;;5090254;28;20915;-79
2021/05/05 04:20:00;;;;;;;4.55;0.60;;;17.00;99.90;;;;;;5087573;28;20385;-79
2021/05/05 04:22:44;;;;;;;4.72;0.70;;;17.00;99.90;;;;;;5073958;28;20425;-79
2021/05/05 04:25:11;;;;;;;2.47;0.40;;;17.10;99.90;;;;;;5092729;28;20376;-79
2021/05/05 04:27:38;;;;;;;4.63;0.68;;;17.00;99.90;;;;;;5090025;28;20384;-80
2021/05/05 04:30:07;;;;;;;2.92;0.65;;;17.00;99.90;;;;;;5090332;28;20821;-79
2021/05/05 04:32:35;;;;;;;4.22;0.52;;;17.10;99.90;;;;;;5091719;28;20372;-78
2021/05/05 04:35:02;;;;;;;4.07;0.82;;;17.10;99.90;;;;;;5092625;28;20365;-79
2021/05/05 04:37:29;;;;;;;4.53;0.80;;;17.00;99.90;;;;;;5090495;28;20369;-78
2021/05/05 04:39:56;;;;;;;3.60;0.60;;;17.00;99.90;;;;;;5079030;28;20390;-79
2021/05/05 04:42:23;;;;;;;4.57;0.60;;;17.00;99.90;;;;;;5074137;28;20378;-79
2021/05/05 04:44:50;;;;;;;2.28;0.63;;;17.10;99.90;;;;;;5075079;28;20911;-78
2021/05/05 04:47:17;;;;;;;2.85;0.52;;;17.10;99.90;;;;;;5075676;28;20382;-80
2021/05/05 04:49:44;;;;;;;3.78;0.60;;;17.20;99.90;;;;;;5089432;28;20400;-80
2021/05/05 04:52:11;;;;;;;3.43;0.70;;;17.30;99.90;;;;;;5075545;28;20432;-80
2021/05/05 04:54:38;;;;;;;4.63;0.65;;;17.30;99.90;;;;;;5071417;28;20378;-80
2021/05/05 04:57:05;;;;;;;3.42;0.75;;;17.40;99.90;;;;;;5076170;28;20376;-79
2021/05/05 04:59:32;;;;;;;4.43;0.70;;;17.40;99.90;;;;;;5094312;28;20517;-80
2021/05/05 05:01:59;;;;;;;3.33;0.68;;;17.40;99.90;;;;;;5091901;28;20376;-79
2021/05/05 05:04:26;;;;;;;3.60;0.50;;;17.40;99.90;;;;;;5088651;28;20386;-79
2021/05/05 05:06:52;;;;;;;1.85;0.45;;;17.40;99.90;;;;;;5072906;28;20374;-79
2021/05/05 05:09:19;;;;;;;4.20;0.68;;;17.30;99.90;;;;;;5072448;28;20412;-79
2021/05/05 05:11:47;;;;;;;2.47;0.80;;;17.30;99.90;;;;;;5071492;28;20377;-80
2021/05/05 05:14:14;;;;;;;3.28;0.68;;;17.20;99.90;;;;;;5069237;28;20837;-79
2021/05/05 05:16:41;;;;;;;2.35;0.40;;;17.10;99.90;;;;;;5070035;28;20873;-79
2021/05/05 05:19:08;;;;;;;2.65;0.57;;;17.00;99.90;;;;;;5070909;28;20374;-78
2021/05/05 05:21:36;;;;;;;2.58;0.47;;;17.00;99.90;;;;;;5076998;28;20369;-78
2021/05/05 05:24:04;;;;;;;2.93;0.67;;;16.90;99.90;;;;;;5078247;28;20441;-79
2021/05/05 05:26:31;;;;;;;2.95;0.70;;;16.80;99.90;;;;;;5089561;28;20393;-79
2021/05/05 05:28:58;;;;;;;3.97;0.73;;;16.80;99.90;;;;;;5087003;28;20462;-79
2021/05/05 05:31:25;;;;;;;1.90;0.70;;;16.80;99.90;;;;;;5069669;28;20806;-79
2021/05/05 05:33:52;;;;;;;1.47;0.57;;;16.70;99.90;;;;;;5069061;28;20393;-79
2021/05/05 05:36:19;;;;;;;3.15;0.85;;;16.70;99.90;;;;;;5087468;28;20400;-78
2021/05/05 05:38:46;;;;;;;2.25;0.73;;;16.60;99.90;;;;;;5092303;28;20442;-79
2021/05/05 05:41:13;;;;;;;3.65;0.90;;;16.60;99.90;;;;;;5091986;28;20387;-79
2021/05/05 05:43:40;;;;;;;4.40;0.70;;;16.60;99.90;;;;;;5091840;28;20376;-80
2021/05/05 05:46:07;;;;;;;5.63;0.90;;;16.60;99.90;;;;;;5091447;28;20375;-80
2021/05/05 05:48:34;;;;;;;2.77;0.97;;;16.60;99.90;;;;;;5087575;28;20752;-79
2021/05/05 05:51:01;;;;;;;4.93;0.93;;;16.50;99.90;;;;;;5092662;28;20430;-79
2021/05/05 05:53:28;;;;;;;2.17;0.88;;;16.50;99.90;;;;;;5092734;28;20851;-78
2021/05/05 05:55:55;;;;;;;4.18;0.85;;;16.50;99.90;;;;;;5085651;28;20877;-79
2021/05/05 05:58:22;;;;;;;2.60;0.90;;;16.50;99.90;;;;;;5073253;28;20382;-79
2021/05/05 06:00:49;;;;;;;2.38;0.60;;;16.50;99.90;;;;;;5071991;28;20782;-80
2021/05/05 06:03:16;;;;;;;2.65;1.02;;;16.50;99.90;;;;;;5071672;28;20374;-80
2021/05/05 06:05:43;;;;;;;3.73;0.70;;;16.50;99.90;;;;;;5071721;28;20385;-80
2021/05/05 06:08:10;;;;;;;3.40;0.63;;;16.50;99.90;;;;;;5072763;28;20812;-80
2021/05/05 06:10:37;;;;;;;3.45;0.63;;;16.40;99.90;;;;;;5073552;28;20366;-78
2021/05/05 06:13:05;;;;;;;1.75;0.80;;;16.40;99.90;;;;;;5072690;28;20378;-78
2021/05/05 06:15:32;;;;;;;2.45;0.73;;;16.40;99.90;;;;;;5071800;28;20366;-78
2021/05/05 06:17:59;;;;;;;1.67;0.65;;;16.40;99.90;;;;;;5072828;28;20524;-79
2021/05/05 06:20:26;;;;;;;3.13;0.73;;;16.40;99.90;;;;;;5072755;28;20389;-79
2021/05/05 06:22:53;;;;;;;2.72;0.70;;;16.40;99.90;;;;;;5073472;28;20397;-79
2021/05/05 06:25:20;;;;;;;4.15;0.80;;;16.50;99.90;;;;;;5072390;28;20741;-79
2021/05/05 06:27:47;;;;;;;2.43;0.60;;;16.50;99.90;;;;;;5072557;28;20967;-80
2021/05/05 06:30:15;;;;;;;2.58;0.77;;;16.50;99.90;;;;;;5087489;28;20455;-79
2021/05/05 06:32:42;;;;;;;3.15;1.05;;;16.50;99.90;;;;;;5091327;28;20442;-79
2021/05/05 06:35:10;;;;;;;4.50;0.90;;;16.50;99.90;;;;;;5090617;28;20467;-79
2021/05/05 06:37:37;;;;;;;4.35;0.90;;;16.40;99.90;;;;;;5087026;28;20376;-79
2021/05/05 06:40:05;;;;;;;2.88;0.90;;;16.40;99.90;;;;;;5076560;28;20905;-80
2021/05/05 06:42:33;;;;;;;2.67;0.70;;;16.40;99.90;;;;;;5081364;28;20380;-79
2021/05/05 06:45:00;;;;;;;4.53;1.00;;;16.30;99.90;;;;;;5079374;28;20445;-79
2021/05/05 06:47:27;;;;;;;2.85;0.82;;;16.30;99.90;;;;;;5079080;28;20388;-79
2021/05/05 06:49:54;;;;;;;4.20;0.85;;;16.30;99.90;;;;;;5088477;28;20921;-80
2021/05/05 06:52:21;;;;;;;4.72;1.20;;;16.30;99.90;;;;;;5088367;28;20935;-78
2021/05/05 06:54:50;;;;;;;2.45;1.00;;;16.30;99.90;;;;;;5090195;28;20866;-78
2021/05/05 06:57:17;;;;;;;2.83;1.10;;;16.20;99.90;;;;;;5077889;28;20466;-81
2021/05/05 06:59:44;;;;;;;2.70;0.90;;;16.20;99.90;;;;;;5082522;28;20502;-80
2021/05/05 07:02:10;;;;;;;2.97;1.00;;;16.20;99.90;;;;;;5070642;28;20371;-80
2021/05/05 07:04:37;;;;;;;4.43;1.10;;;16.20;99.90;;;;;;5070446;28;20394;-79
2021/05/05 07:07:04;;;;;;;5.95;1.20;;;16.10;99.90;;;;;;5070509;28;20377;-78
2021/05/05 07:09:31;;;;;;;2.33;1.00;;;16.10;99.90;;;;;;5069313;28;20406;-78
2021/05/05 07:11:58;;;;;;;2.40;1.00;;;16.10;99.90;;;;;;5071633;28;20382;-79
2021/05/05 07:14:25;;;;;;;2.53;1.10;;;16.10;99.90;;;;;;5074954;28;20487;-80
2021/05/05 07:16:52;;;;;;;4.47;1.20;;;16.10;99.90;;;;;;5076764;28;20918;-79
2021/05/05 07:19:19;;;;;;;2.63;1.30;;;16.10;99.90;;;;;;5074125;28;20374;-79
2021/05/05 07:21:46;;;;;;;3.35;1.85;;;16.00;99.90;;;;;;5089754;28;20381;-79
2021/05/05 07:24:14;;;;;;;3.42;2.13;;;16.00;99.90;;;;;;5060707;28;20466;-80
2021/05/05 07:26:41;;;;;;;3.22;1.70;;;16.10;99.90;;;;;;5059546;28;20391;-78
2021/05/05 07:29:07;;;;;;;5.40;1.50;;;16.00;99.90;;;;;;5055468;28;20442;-80
2021/05/05 07:31:34;;;;;;;3.80;2.17;;;16.00;99.90;;;;;;5070091;28;20382;-79
2021/05/05 07:34:01;;;;;;;5.38;1.85;;;15.90;99.90;;;;;;5067936;28;20401;-79
2021/05/05 07:36:29;;;;;;;4.00;2.00;;;15.90;99.90;;;;;;5069597;28;20377;-80
2021/05/05 07:47:17;;;;;;;2.80;1.60;;;15.90;99.90;;;;;;5054073;28;20426;-80
2021/05/05 07:49:51;;;;;;;4.13;1.73;;;15.80;99.90;;;;;;5062105;28;20417;-79
2021/05/05 07:52:20;;;;;;;3.50;1.60;;;15.80;99.90;;;;;;5063357;28;20426;-79
2021/05/05 07:54:48;;;;;;;5.82;1.73;;;15.80;99.90;;;;;;5052829;28;20403;-79
2021/05/05 07:57:18;;;;;;;5.75;1.90;;;15.80;99.90;;;;;;5054052;28;20466;-79
2021/05/05 07:59:46;;;;;;;4.43;1.90;;;15.80;99.90;;;;;;5072162;28;20385;-80
2021/05/05 08:02:13;;;;;;;5.43;2.00;;;15.80;99.90;;;;;;5068915;28;20375;-80
2021/05/05 08:04:49;;;;;;;6.32;1.92;;;15.80;99.90;;;;;;5067432;28;21014;-80
2021/05/05 08:07:20;;;;;;;5.07;1.52;;;15.80;99.90;;;;;;5082179;28;20389;-79
2021/05/05 08:09:48;;;;;;;6.20;1.55;;;15.80;99.90;;;;;;5068661;28;20488;-79
2021/05/05 08:12:16;;;;;;;9.77;1.80;;;15.80;99.90;;;;;;5068743;28;20931;-79
2021/05/05 08:14:46;;;;;;;6.90;1.98;;;15.80;99.90;;;;;;5078216;28;20386;-79
2021/05/05 08:17:13;;;;;;;8.27;2.53;;;15.90;99.90;;;;;;5074211;28;20539;-81
2021/05/05 08:19:40;;;;;;;8.77;2.30;;;15.80;99.90;;;;;;5084322;28;20483;-80
2021/05/05 08:22:07;;;;;;;6.57;2.43;;;15.80;99.90;;;;;;5083940;28;20937;-79
2021/05/05 08:24:34;;;;;;;9.90;2.72;;;15.80;99.90;;;;;;5084739;28;21098;-79
2021/05/05 08:27:01;;;;;;;5.82;2.45;;;15.80;99.90;;;;;;5061190;28;20831;-80
2021/05/05 08:29:28;;;;;;;7.32;2.65;;;15.80;99.90;;;;;;5057979;28;20769;-79
2021/05/05 08:31:56;;;;;;;10.37;2.47;;;15.90;99.90;;;;;;5050303;28;20414;-79
2021/05/05 08:34:27;;;;;;;5.17;2.50;;;15.80;99.90;;;;;;5049164;28;20481;-79
2021/05/05 08:36:55;;;;;;;5.78;2.47;;;15.90;99.90;;;;;;5057951;28;20407;-79
2021/05/05 08:39:23;;;;;;;6.57;2.90;;;15.90;99.90;;;;;;5065317;28;20820;-79
2021/05/05 08:41:50;;;;;;;6.30;2.83;;;15.90;99.90;;;;;;5063614;28;20470;-79
2021/05/05 08:44:17;;;;;;;9.15;3.00;;;15.90;99.90;;;;;;5059868;28;20413;-81
2021/05/05 08:46:46;;;;;;;7.78;2.97;;;15.90;99.90;;;;;;5074068;28;20463;-80
2021/05/05 08:49:15;;;;;;;7.38;3.20;;;15.90;99.90;;;;;;5071427;28;20912;-80
2021/05/05 08:51:43;;;;;;;10.55;4.25;;;15.90;99.90;;;;;;5081166;28;20455;-80
2021/05/05 08:54:10;;;;;;;10.07;3.80;;;15.90;99.90;;;;;;5087052;28;20384;-80
2021/05/05 08:56:38;;;;;;;7.65;3.38;;;15.90;99.90;;;;;;5076731;28;20439;-80
2021/05/05 08:59:17;;;;;;;8.25;3.55;;;16.00;99.90;;;;;;5069143;28;20465;-80
2021/05/05 09:01:45;;;;;;;12.80;6.80;;;16.00;99.90;;;;;;5084543;28;20734;-79
2021/05/05 09:04:14;;;;;;;12.37;3.80;;;15.90;99.90;;;;;;5071735;28;20402;-80
2021/05/05 09:06:56;;;;;;;10.80;4.13;;;16.00;99.90;;;;;;5074124;28;20451;-80
2021/05/05 09:09:39;;;;;;;9.87;3.83;;;15.90;99.90;;;;;;5088019;28;20602;-82
2021/05/05 09:12:23;;;;;;;11.18;4.13;;;16.00;99.90;;;;;;5090672;28;20895;-82
2021/05/05 09:15:19;;;;;;;9.82;4.25;;;16.00;99.90;;;;;;5092880;28;20387;-81
2021/05/05 09:17:55;;;;;;;9.93;4.60;;;15.90;99.90;;;;;;5077247;28;20409;-81
2021/05/05 09:20:33;;;;;;;14.15;5.30;;;15.90;99.90;;;;;;5076697;28;20758;-81
2021/05/05 09:23:05;;;;;;;12.25;5.40;;;16.00;99.90;;;;;;5054730;28;20384;-80
2021/05/05 09:25:32;;;;;;;11.77;5.20;;;16.00;99.90;;;;;;5066198;28;20378;-80
2021/05/05 09:28:18;;;;;;;10.07;4.78;;;16.00;99.90;;;;;;5082126;28;20797;-80
2021/05/05 09:30:48;;;;;;;8.65;5.30;;;16.00;99.90;;;;;;5068535;28;20402;-80
2021/05/05 09:33:33;;;;;;;12.65;6.28;;;16.00;99.90;;;;;;5092521;28;20377;-81
2021/05/05 09:36:06;;;;;;;10.98;6.00;;;15.90;99.90;;;;;;5075034;28;20831;-81
2021/05/05 09:38:50;;;;;;;12.05;5.95;;;16.00;99.90;;;;;;5073194;28;20892;-81
2021/05/05 09:41:31;;;;;;;14.77;6.75;;;15.90;99.90;;;;;;5077023;28;20390;-80
2021/05/05 09:44:07;;;;;;;11.30;5.60;;;15.90;99.90;;;;;;5082699;28;20394;-81
2021/05/05 09:46:43;;;;;;;14.30;5.78;;;16.00;99.90;;;;;;5090618;28;20448;-80
2021/05/05 09:49:26;;;;;;;13.50;5.50;;;16.00;99.90;;;;;;5068657;28;20711;-81
2021/05/05 09:52:05;;;;;;;16.30;5.88;;;16.00;99.90;;;;;;5073313;28;20799;-81
2021/05/05 09:54:35;;;;;;;15.00;7.43;;;16.10;99.90;;;;;;5078944;28;20394;-81
2021/05/05 09:57:23;;;;;;;21.23;7.57;;;16.10;99.90;;;;;;5070116;28;20790;-81
2021/05/05 10:00:07;;;;;;;20.20;7.95;;;16.10;99.90;;;;;;5071907;28;20703;-82
2021/05/05 10:02:45;;;;;;;26.60;10.85;;;16.00;99.90;;;;;;5072023;28;20451;-80
2021/05/05 10:05:18;;;;;;;19.95;9.80;;;16.10;99.90;;;;;;5067789;28;20892;-81
2021/05/05 10:07:54;;;;;;;20.13;9.95;;;16.10;99.90;;;;;;5065750;28;20388;-81
2021/05/05 10:10:24;;;;;;;23.60;10.57;;;16.10;99.90;;;;;;5072736;28;20531;-81
2021/05/05 10:12:53;;;;;;;18.38;9.93;;;16.10;99.90;;;;;;5060250;28;20436;-81
2021/05/05 10:15:31;;;;;;;20.13;10.90;;;16.10;99.90;;;;;;5053567;28;20400;-82
2021/05/05 10:17:59;;;;;;;27.67;10.33;;;16.10;99.90;;;;;;5077069;28;20401;-82
2021/05/05 10:20:28;;;;;;;20.55;10.50;;;16.10;99.90;;;;;;5087862;28;20387;-81
2021/05/05 10:23:00;;;;;;;16.42;8.85;;;16.10;99.90;;;;;;5073213;28;20853;-81
2021/05/05 10:25:29;;;;;;;19.90;7.90;;;16.10;99.90;;;;;;5068512;28;20378;-81
2021/05/05 10:27:57;;;;;;;20.33;7.68;;;16.10;99.90;;;;;;5068068;28;20392;-81
2021/05/05 10:30:34;;;;;;;16.83;6.82;;;16.10;99.90;;;;;;5052599;28;20411;-81
2021/05/05 10:33:02;;;;;;;16.38;6.45;;;16.00;99.90;;;;;;5079145;28;20412;-82
2021/05/05 10:35:28;;;;;;;10.63;5.37;;;16.00;99.90;;;;;;5066329;28;20736;-82
2021/05/05 10:37:58;;;;;;;12.40;5.17;;;16.00;99.90;;;;;;5049475;28;21289;-82
2021/05/05 10:40:36;;;;;;;13.27;6.13;;;16.00;99.90;;;;;;5051141;28;20391;-83
2021/05/05 10:43:06;;;;;;;40.23;16.83;;;16.00;99.90;;;;;;5063152;28;20500;-81
2021/05/05 10:45:34;;;;;;;27.23;11.30;;;16.00;99.90;;;;;;5058016;28;20380;-81
2021/05/05 10:48:16;;;;;;;10.90;5.88;;;16.00;99.90;;;;;;5088511;28;20922;-81
2021/05/05 10:50:52;;;;;;;11.77;3.90;;;16.00;99.90;;;;;;5071341;28;20402;-83
2021/05/05 10:53:37;;;;;;;12.63;4.70;;;15.90;99.90;;;;;;5080550;28;20372;-82
2021/05/05 10:56:22;;;;;;;10.48;4.30;;;15.90;99.90;;;;;;5071002;28;20444;-80
2021/05/05 10:59:17;;;;;;;12.27;4.38;;;15.90;99.90;;;;;;5071019;28;20381;-81
2021/05/05 11:01:50;;;;;;;10.93;4.97;;;15.90;99.90;;;;;;5064181;28;20469;-81
2021/05/05 11:04:17;;;;;;;12.75;5.18;;;15.80;99.90;;;;;;5084785;28;20389;-82
2021/05/05 11:06:53;;;;;;;12.43;4.78;;;15.80;99.90;;;;;;5073845;28;20438;-81
2021/05/05 11:09:22;;;;;;;9.25;4.47;;;15.80;99.90;;;;;;5072111;28;20444;-82
2021/05/05 11:11:51;;;;;;;8.70;5.33;;;15.70;99.90;;;;;;5076058;28;20380;-81
2021/05/05 11:14:32;;;;;;;10.37;4.67;;;15.70;99.90;;;;;;5086892;28;21002;-80
2021/05/05 11:17:10;;;;;;;9.93;3.80;;;15.70;99.90;;;;;;5066100;28;20396;-81
2021/05/05 11:19:37;;;;;;;7.53;3.55;;;15.60;99.90;;;;;;5057576;28;20398;-81
2021/05/05 11:22:09;;;;;;;7.90;2.80;;;15.60;99.90;;;;;;5057054;28;20405;-80
2021/05/05 11:24:37;;;;;;;7.50;3.47;;;15.60;99.90;;;;;;5068198;28;20397;-80
2021/05/05 11:27:08;;;;;;;9.30;3.50;;;15.60;99.90;;;;;;5106889;27;20384;-82
2021/05/05 11:29:47;;;;;;;9.07;4.55;;;15.70;99.90;;;;;;5076009;28;20410;-81
2021/05/05 11:32:27;;;;;;;6.25;3.28;;;15.70;99.90;;;;;;5068286;28;20474;-82
2021/05/05 11:34:54;;;;;;;8.00;3.22;;;15.70;99.90;;;;;;5085963;28;20408;-81
2021/05/05 11:37:25;;;;;;;10.07;3.65;;;15.70;99.90;;;;;;5078536;28;20461;-82
2021/05/05 11:39:57;;;;;;;9.43;4.30;;;15.70;99.90;;;;;;5070306;28;20440;-83
2021/05/05 11:42:25;;;;;;;6.55;3.10;;;15.60;99.90;;;;;;5065855;28;20386;-82
2021/05/05 11:44:54;;;;;;;8.02;2.40;;;15.60;99.90;;;;;;5072067;28;20366;-82
2021/05/05 11:47:28;;;;;;;8.10;2.58;;;15.70;99.90;;;;;;5070859;28;20420;-83
2021/05/05 11:49:58;;;;;;;6.57;2.60;;;15.70;99.90;;;;;;5069837;28;20410;-82
2021/05/05 11:52:36;;;;;;;6.10;2.92;;;15.70;99.90;;;;;;5082470;28;20391;-84
2021/05/05 11:55:19;;;;;;;6.13;2.28;;;15.70;99.90;;;;;;5078907;28;20559;-84
2021/05/05 11:57:51;;;;;;;6.03;2.30;;;15.70;99.90;;;;;;5078237;28;20473;-82
2021/05/05 12:00:22;;;;;;;7.63;2.20;;;15.80;99.90;;;;;;5068196;28;20451;-83
2021/05/05 12:02:54;;;;;;;5.35;2.03;;;15.80;99.90;;;;;;5064769;28;20397;-82
2021/05/05 12:05:35;;;;;;;11.80;3.50;;;15.80;99.90;;;;;;5069027;28;20386;-83
2021/05/05 12:08:17;;;;;;;9.38;3.50;;;15.80;99.90;;;;;;5069411;28;20400;-84
2021/05/05 12:10:59;;;;;;;5.75;3.70;;;15.80;99.90;;;;;;5073912;28;20411;-82
2021/05/05 12:13:29;;;;;;;7.60;3.50;;;15.80;99.90;;;;;;5070959;28;20527;-83
2021/05/05 12:16:04;;;;;;;6.70;3.65;;;15.80;99.90;;;;;;5076862;28;20394;-82
2021/05/05 12:18:35;;;;;;;10.20;3.80;;;15.70;99.90;;;;;;5072859;28;20386;-82
2021/05/05 12:21:09;;;;;;;8.68;3.50;;;15.60;99.90;;;;;;5079557;28;20384;-82
2021/05/05 12:23:38;;;;;;;6.00;3.10;;;15.60;99.90;;;;;;5070063;28;20424;-83
2021/05/05 12:26:20;;;;;;;6.72;2.00;;;15.60;99.90;;;;;;5083361;28;20384;-83
2021/05/05 12:28:50;;;;;;;7.77;2.57;;;15.60;99.90;;;;;;5086141;28;20485;-81
2021/05/05 12:31:24;;;;;;;8.82;1.95;;;15.60;99.90;;;;;;5068272;28;20812;-82
2021/05/05 12:33:52;;;;;;;6.97;1.83;;;15.60;99.90;;;;;;5069486;28;20437;-83
2021/05/05 12:36:30;;;;;;;5.15;2.00;;;15.60;99.90;;;;;;5069056;28;20722;-83
2021/05/05 12:39:12;;;;;;;8.85;2.60;;;15.60;99.90;;;;;;5073412;28;20749;-83
2021/05/05 12:41:47;;;;;;;7.22;2.38;;;15.60;99.90;;;;;;5069985;28;20378;-84
2021/05/05 12:44:16;;;;;;;6.13;2.55;;;15.50;99.90;;;;;;5069154;28;20431;-82
2021/05/05 12:50:00;;;;;;;5.37;2.60;;;15.50;99.90;;;;;;5026539;28;20961;-83
2021/05/05 12:52:32;;;;;;;6.95;2.60;;;15.50;99.90;;;;;;5046687;28;20918;-83
2021/05/05 12:55:00;;;;;;;8.77;2.60;;;15.50;99.90;;;;;;5065186;28;20418;-82
2021/05/05 12:57:27;;;;;;;5.97;2.28;;;15.50;99.90;;;;;;5078774;28;20470;-83
2021/05/05 12:59:55;;;;;;;4.03;1.88;;;15.50;99.90;;;;;;5072567;28;20397;-82
2021/05/05 13:02:24;;;;;;;5.80;1.90;;;15.50;99.90;;;;;;5072533;28;20404;-82
2021/05/05 13:05:03;;;;;;;4.22;2.10;;;15.50;99.90;;;;;;5069528;28;20484;-82
2021/05/05 13:07:42;;;;;;;5.63;2.17;;;15.50;99.90;;;;;;5085125;28;20959;-82
2021/05/05 13:10:17;;;;;;;5.53;2.47;;;15.50;99.90;;;;;;5087844;28;20411;-83